Time;durP1;ratioP1;P1;durP2;ratioP2;P2;SDS_P1;SDS_P2;PMS_P1;PMS_P2;Temp;Humidity;BMP_temperature;BMP_pressure;BME280_temperature;BME280_humidity;BME280_pressure;Samples;Min_cycle;Max_cycle;Signal;HPM_P1;HPM_P2
2022/05/29 00:01:39;;;;;;;2.37;1.50;;;10.40;99.90;;;;;;481332;247;28036;-71
2022/05/29 00:03:40;;;;;;;4.20;1.70;;;10.40;99.90;;;;;;481336;247;27798;-71
2022/05/29 00:05:41;;;;;;;3.40;2.13;;;10.40;99.90;;;;;;481377;247;27985;-74
2022/05/29 00:07:42;;;;;;;2.93;1.70;;;10.40;99.90;;;;;;481341;247;27802;-71
2022/05/29 00:09:44;;;;;;;4.43;1.77;;;10.50;99.90;;;;;;481343;247;27799;-73
2022/05/29 00:11:45;;;;;;;3.40;1.83;;;10.50;99.90;;;;;;481341;247;27867;-71
2022/05/29 00:13:46;;;;;;;4.33;1.93;;;10.30;99.90;;;;;;481327;247;27929;-71
2022/05/29 00:15:47;;;;;;;4.20;2.00;;;10.30;99.90;;;;;;481340;247;27796;-72
2022/05/29 00:17:49;;;;;;;1.90;1.73;;;10.20;99.90;;;;;;481346;247;27524;-71
2022/05/29 00:19:50;;;;;;;4.60;1.60;;;10.30;99.90;;;;;;481352;247;27922;-71
2022/05/29 00:21:51;;;;;;;2.23;1.80;;;10.30;99.90;;;;;;481311;247;28236;-71
2022/05/29 00:23:53;;;;;;;3.97;1.87;;;10.30;99.90;;;;;;481322;247;28351;-71
2022/05/29 00:25:54;;;;;;;1.80;1.70;;;10.20;99.90;;;;;;481340;247;28388;-74
2022/05/29 00:27:55;;;;;;;2.57;1.67;;;10.20;99.90;;;;;;481328;247;28391;-71
2022/05/29 00:29:56;;;;;;;6.23;2.53;;;10.10;99.90;;;;;;481353;247;27987;-71
2022/05/29 00:31:59;;;;;;;2.03;1.77;;;10.10;99.90;;;;;;481373;247;27970;-71
2022/05/29 00:33:59;;;;;;;2.50;1.70;;;10.10;99.90;;;;;;481247;247;27979;-72
2022/05/29 00:36:00;;;;;;;2.00;1.77;;;10.00;99.90;;;;;;481380;247;27463;-74
2022/05/29 00:38:01;;;;;;;8.00;1.80;;;10.10;99.90;;;;;;481386;247;27975;-71
2022/05/29 00:40:02;;;;;;;2.80;1.90;;;10.10;99.90;;;;;;481365;247;27896;-71
2022/05/29 00:42:04;;;;;;;3.50;1.90;;;10.10;99.90;;;;;;481371;247;27637;-70
2022/05/29 00:44:05;;;;;;;2.17;1.83;;;10.10;99.90;;;;;;481364;247;28063;-71
2022/05/29 00:46:06;;;;;;;2.20;1.60;;;10.00;99.90;;;;;;481354;247;28008;-72
2022/05/29 00:48:07;;;;;;;1.43;1.33;;;10.00;99.90;;;;;;481343;247;28352;-71
2022/05/29 00:50:09;;;;;;;3.57;1.80;;;10.00;99.90;;;;;;481357;247;28396;-71
2022/05/29 00:52:10;;;;;;;2.10;1.90;;;9.90;99.90;;;;;;481360;247;28347;-71
2022/05/29 00:54:11;;;;;;;3.80;1.93;;;10.00;99.90;;;;;;481351;247;27991;-71
2022/05/29 00:56:12;;;;;;;5.90;1.80;;;9.90;99.90;;;;;;481360;247;27873;-73
2022/05/29 00:58:14;;;;;;;4.37;2.03;;;9.80;99.90;;;;;;481358;247;27995;-72
2022/05/29 01:00:15;;;;;;;4.33;1.70;;;10.00;99.90;;;;;;481378;247;27889;-72
2022/05/29 01:02:16;;;;;;;2.20;1.77;;;10.00;99.90;;;;;;481384;247;27881;-71
2022/05/29 01:04:17;;;;;;;5.67;2.17;;;9.80;99.90;;;;;;481383;247;27922;-71
2022/05/29 01:06:19;;;;;;;6.87;1.87;;;9.80;99.90;;;;;;481378;247;28018;-72
2022/05/29 01:08:20;;;;;;;2.97;1.60;;;9.80;99.90;;;;;;481393;247;27856;-71
2022/05/29 01:10:21;;;;;;;4.00;2.00;;;9.70;99.90;;;;;;481398;247;27547;-71
2022/05/29 01:12:22;;;;;;;5.43;1.80;;;9.70;99.90;;;;;;481356;247;27848;-71
2022/05/29 01:14:24;;;;;;;3.43;1.80;;;9.70;99.90;;;;;;481369;247;27976;-72
2022/05/29 01:16:26;;;;;;;3.83;2.03;;;9.70;99.90;;;;;;481378;247;27632;-73
2022/05/29 01:18:26;;;;;;;3.33;1.70;;;9.70;99.90;;;;;;481341;247;28122;-71
2022/05/29 01:20:27;;;;;;;3.63;2.13;;;9.70;99.90;;;;;;481356;247;28476;-71
2022/05/29 01:22:29;;;;;;;2.80;2.00;;;9.60;99.90;;;;;;481343;247;28112;-71
2022/05/29 01:24:30;;;;;;;3.00;1.90;;;9.70;99.90;;;;;;481344;247;28493;-72
2022/05/29 01:26:31;;;;;;;4.87;2.00;;;9.70;99.90;;;;;;481388;247;28428;-74
2022/05/29 01:28:32;;;;;;;2.20;2.00;;;9.60;99.90;;;;;;481369;247;28199;-71
2022/05/29 01:30:34;;;;;;;3.60;1.73;;;9.60;99.90;;;;;;481362;247;27818;-71
2022/05/29 01:32:35;;;;;;;5.90;2.00;;;9.60;99.90;;;;;;481352;247;27886;-71
2022/05/29 01:34:36;;;;;;;2.30;1.83;;;9.60;99.90;;;;;;481309;247;27550;-71
2022/05/29 01:36:37;;;;;;;2.93;1.83;;;9.60;99.90;;;;;;481391;247;27544;-71
2022/05/29 01:38:39;;;;;;;3.80;2.03;;;9.60;99.90;;;;;;481367;247;27888;-71
2022/05/29 01:40:40;;;;;;;2.47;2.00;;;9.50;99.90;;;;;;481370;247;28005;-72
2022/05/29 01:42:41;;;;;;;2.70;2.00;;;9.50;99.90;;;;;;481361;247;27940;-72
2022/05/29 01:44:42;;;;;;;2.93;1.63;;;9.60;99.90;;;;;;481347;247;28004;-71
2022/05/29 01:46:44;;;;;;;5.43;2.17;;;9.60;99.90;;;;;;481364;247;27895;-73
2022/05/29 01:48:45;;;;;;;4.07;1.90;;;9.50;99.90;;;;;;481371;247;27775;-73
2022/05/29 01:50:46;;;;;;;6.53;2.67;;;9.50;99.90;;;;;;481373;247;27887;-72
2022/05/29 01:52:47;;;;;;;3.67;2.10;;;9.50;99.90;;;;;;481360;247;27881;-71
2022/05/29 01:54:49;;;;;;;2.63;2.30;;;9.50;99.90;;;;;;481367;247;28033;-71
2022/05/29 01:56:50;;;;;;;2.80;1.87;;;9.50;99.90;;;;;;481358;247;27902;-73
2022/05/29 01:58:51;;;;;;;4.13;2.03;;;9.60;99.90;;;;;;481351;247;28305;-71
2022/05/29 02:00:52;;;;;;;2.20;1.97;;;9.60;99.90;;;;;;481368;247;28548;-72
2022/05/29 02:02:54;;;;;;;4.73;2.03;;;9.60;99.90;;;;;;481356;247;28418;-71
2022/05/29 02:04:55;;;;;;;4.10;1.77;;;9.60;99.90;;;;;;481349;247;28290;-71
2022/05/29 02:09:16;;;;;;;2.43;1.80;;;9.50;99.90;;;;;;481366;247;27985;-71
2022/05/29 02:11:17;;;;;;;5.27;2.00;;;9.50;99.90;;;;;;481369;247;27828;-71
2022/05/29 02:13:18;;;;;;;4.27;2.13;;;9.40;99.90;;;;;;481361;247;28087;-71
2022/05/29 02:15:19;;;;;;;2.53;2.00;;;9.40;99.90;;;;;;481356;247;28000;-72
2022/05/29 02:17:21;;;;;;;9.20;2.30;;;9.40;99.90;;;;;;481359;247;27891;-72
2022/05/29 02:19:22;;;;;;;4.70;2.03;;;9.30;99.90;;;;;;481344;247;28409;-71
2022/05/29 02:21:23;;;;;;;2.47;1.80;;;9.20;99.90;;;;;;481373;247;28054;-73
2022/05/29 02:23:24;;;;;;;3.40;2.00;;;9.30;99.90;;;;;;481355;247;28293;-71
2022/05/29 02:25:26;;;;;;;2.37;2.00;;;9.30;99.90;;;;;;481360;247;28280;-71
2022/05/29 02:27:27;;;;;;;2.40;1.97;;;9.20;99.90;;;;;;481378;247;28534;-74
2022/05/29 02:29:28;;;;;;;2.47;1.83;;;9.30;99.90;;;;;;481358;247;27928;-71
2022/05/29 02:31:29;;;;;;;4.93;2.70;;;9.20;99.90;;;;;;481351;247;27448;-71
2022/05/29 02:33:31;;;;;;;2.30;1.77;;;9.30;99.90;;;;;;481361;247;27508;-71
2022/05/29 02:35:32;;;;;;;3.73;2.03;;;9.20;99.90;;;;;;481349;247;27918;-71
2022/05/29 02:37:33;;;;;;;2.40;2.00;;;9.20;99.90;;;;;;481397;247;28011;-71
2022/05/29 02:39:34;;;;;;;3.47;1.90;;;9.20;99.90;;;;;;481390;247;27523;-71
2022/05/29 02:41:35;;;;;;;3.67;1.90;;;9.20;99.90;;;;;;481387;247;27948;-72
2022/05/29 02:43:37;;;;;;;2.13;1.63;;;9.20;99.90;;;;;;481390;246;27859;-71
2022/05/29 02:45:38;;;;;;;2.93;1.80;;;9.20;99.90;;;;;;481374;247;27930;-71
2022/05/29 02:47:39;;;;;;;3.10;1.87;;;9.10;99.90;;;;;;481363;247;27993;-74
2022/05/29 02:49:42;;;;;;;3.70;2.03;;;9.10;99.90;;;;;;481373;247;27806;-71
2022/05/29 02:51:42;;;;;;;2.90;1.90;;;9.10;99.90;;;;;;481286;247;27972;-71
2022/05/29 02:53:43;;;;;;;1.83;1.63;;;9.10;99.90;;;;;;481348;245;27914;-71
2022/05/29 02:55:44;;;;;;;2.80;2.23;;;9.10;99.90;;;;;;481340;247;28004;-72
2022/05/29 02:57:45;;;;;;;4.00;1.87;;;9.00;99.90;;;;;;481364;247;28051;-73
2022/05/29 02:59:47;;;;;;;2.80;1.90;;;9.00;99.90;;;;;;481333;247;28306;-71
2022/05/29 03:01:48;;;;;;;3.20;2.10;;;8.90;99.90;;;;;;481361;247;28159;-72
2022/05/29 03:03:49;;;;;;;3.47;2.00;;;9.00;99.90;;;;;;481327;247;28076;-71
2022/05/29 03:05:50;;;;;;;4.07;2.00;;;9.00;99.90;;;;;;481337;247;28446;-72
2022/05/29 03:07:52;;;;;;;4.50;1.80;;;9.10;99.90;;;;;;481358;247;28581;-74
2022/05/29 03:09:53;;;;;;;3.00;1.77;;;9.10;99.90;;;;;;481352;247;27835;-71
2022/05/29 03:11:55;;;;;;;2.47;1.97;;;9.10;99.90;;;;;;481350;247;27887;-72
2022/05/29 03:13:55;;;;;;;2.17;1.77;;;9.00;99.90;;;;;;481331;244;27722;-71
2022/05/29 03:15:57;;;;;;;4.10;1.53;;;9.00;99.90;;;;;;481337;247;27883;-71
2022/05/29 03:17:58;;;;;;;4.00;2.03;;;9.10;99.90;;;;;;481356;247;27495;-71
2022/05/29 03:19:59;;;;;;;2.13;1.93;;;9.00;99.90;;;;;;481368;247;27885;-71
2022/05/29 03:22:00;;;;;;;3.27;1.83;;;8.90;99.90;;;;;;481356;247;27811;-71
2022/05/29 03:24:03;;;;;;;3.87;2.10;;;;;;;;;;481295;247;27931;-71
2022/05/29 03:26:04;;;;;;;6.60;2.23;;;8.70;99.90;;;;;;481272;247;27077;-71
2022/05/29 03:28:05;;;;;;;3.93;2.40;;;8.80;99.90;;;;;;481278;247;27803;-71
2022/05/29 03:30:06;;;;;;;6.63;2.20;;;8.70;99.90;;;;;;481304;247;28019;-74
2022/05/29 03:32:08;;;;;;;2.80;2.00;;;8.70;99.90;;;;;;481321;247;27890;-71
2022/05/29 03:34:09;;;;;;;6.53;2.33;;;8.80;99.90;;;;;;481327;247;27957;-72
2022/05/29 03:36:20;;;;;;;3.53;2.17;;;8.80;99.90;;;;;;481314;247;28419;-71
2022/05/29 03:38:11;;;;;;;6.40;2.93;;;8.70;99.90;;;;;;480690;247;28347;-72
2022/05/29 03:40:13;;;;;;;2.30;1.87;;;8.60;99.90;;;;;;481361;247;29006;-71
2022/05/29 03:42:14;;;;;;;2.10;1.70;;;8.50;99.90;;;;;;481379;247;28414;-70
2022/05/29 03:44:15;;;;;;;3.27;2.23;;;8.50;99.90;;;;;;481284;247;28592;-72
2022/05/29 03:46:16;;;;;;;3.50;2.20;;;8.50;99.90;;;;;;481338;247;27727;-71
2022/05/29 03:48:18;;;;;;;4.87;2.50;;;8.50;99.90;;;;;;481344;247;28139;-71
2022/05/29 03:50:19;;;;;;;2.17;1.70;;;8.50;99.90;;;;;;481333;247;27905;-71
2022/05/29 03:52:20;;;;;;;5.17;2.27;;;8.50;99.90;;;;;;481365;247;27877;-71
2022/05/29 03:54:21;;;;;;;3.47;2.20;;;8.50;99.90;;;;;;481334;247;27958;-72
2022/05/29 03:56:23;;;;;;;3.13;2.40;;;8.50;99.90;;;;;;481340;246;27664;-71
2022/05/29 03:58:24;;;;;;;8.23;2.40;;;8.60;99.90;;;;;;481348;247;27918;-71
2022/05/29 04:00:25;;;;;;;4.10;2.43;;;8.40;99.90;;;;;;481327;247;28095;-71
2022/05/29 04:02:26;;;;;;;3.27;2.33;;;8.50;99.90;;;;;;481317;247;27774;-71
2022/05/29 04:04:28;;;;;;;2.20;1.90;;;8.40;99.90;;;;;;481333;247;28010;-71
2022/05/29 04:06:30;;;;;;;4.23;2.60;;;8.40;99.90;;;;;;481328;247;27893;-71
2022/05/29 04:13:09;;;;;;;4.03;2.60;;;8.30;99.90;;;;;;481354;247;28034;-69
2022/05/29 04:15:10;;;;;;;2.20;2.00;;;8.30;99.90;;;;;;481336;247;27939;-71
2022/05/29 04:17:11;;;;;;;4.83;2.40;;;8.40;99.90;;;;;;481318;247;28310;-71
2022/05/29 04:19:13;;;;;;;4.93;2.53;;;8.20;99.90;;;;;;481361;247;27931;-71
2022/05/29 04:21:14;;;;;;;7.07;2.67;;;8.20;99.90;;;;;;481341;247;27923;-72
2022/05/29 04:23:15;;;;;;;5.20;2.37;;;8.20;99.90;;;;;;481353;247;28228;-71
2022/05/29 04:25:16;;;;;;;7.13;2.50;;;8.30;99.90;;;;;;481332;247;28493;-71
2022/05/29 04:27:18;;;;;;;4.57;1.90;;;8.30;99.90;;;;;;481339;247;29153;-71
2022/05/29 04:29:19;;;;;;;3.00;1.93;;;8.40;99.90;;;;;;481364;247;28353;-71
2022/05/29 04:31:20;;;;;;;3.97;2.10;;;8.50;99.90;;;;;;481350;247;28388;-71
2022/05/29 04:33:22;;;;;;;4.77;2.40;;;8.40;99.90;;;;;;481373;247;27865;-71
2022/05/29 04:35:23;;;;;;;5.20;2.47;;;8.40;99.90;;;;;;481381;247;27571;-71
2022/05/29 04:37:24;;;;;;;5.73;2.53;;;8.40;99.90;;;;;;481313;247;27874;-71
2022/05/29 04:39:25;;;;;;;5.50;2.33;;;8.40;99.90;;;;;;481383;247;27394;-71
2022/05/29 04:41:26;;;;;;;4.73;2.23;;;8.30;99.90;;;;;;481380;247;27618;-72
2022/05/29 04:43:28;;;;;;;2.73;2.20;;;8.40;99.90;;;;;;481362;247;27857;-71
2022/05/29 04:45:29;;;;;;;2.23;1.70;;;8.60;99.90;;;;;;481370;247;27790;-72
2022/05/29 04:47:30;;;;;;;4.70;2.07;;;8.60;99.90;;;;;;481348;247;28291;-71
2022/05/29 04:49:31;;;;;;;6.00;2.47;;;8.70;99.90;;;;;;481361;247;27420;-70
2022/05/29 04:51:33;;;;;;;6.83;2.27;;;8.80;99.90;;;;;;481341;246;27937;-72
2022/05/29 04:53:34;;;;;;;4.27;1.90;;;8.70;99.90;;;;;;481311;247;27527;-71
2022/05/29 04:55:35;;;;;;;4.37;1.90;;;8.80;99.90;;;;;;481269;247;27544;-71
2022/05/29 04:57:36;;;;;;;3.00;1.70;;;8.70;99.90;;;;;;481199;247;28172;-71
2022/05/29 04:59:38;;;;;;;2.57;1.90;;;8.70;99.90;;;;;;481123;247;27661;-71
2022/05/29 05:01:39;;;;;;;3.50;1.97;;;8.60;99.90;;;;;;481071;247;28038;-71
2022/05/29 05:03:40;;;;;;;10.20;2.10;;;8.70;99.90;;;;;;481201;247;28201;-70
2022/05/29 05:05:42;;;;;;;3.73;2.37;;;8.60;99.90;;;;;;481324;247;28281;-71
2022/05/29 05:07:43;;;;;;;2.70;1.93;;;8.60;99.90;;;;;;481235;247;28065;-74
2022/05/29 05:09:44;;;;;;;5.90;2.40;;;8.60;99.90;;;;;;481298;247;28348;-72
2022/05/29 05:11:45;;;;;;;5.97;2.60;;;8.60;99.90;;;;;;481336;247;27796;-72
2022/05/29 05:13:46;;;;;;;4.60;2.53;;;8.60;99.90;;;;;;481334;247;27722;-70
2022/05/29 05:15:48;;;;;;;3.70;2.20;;;8.60;99.90;;;;;;481339;247;27966;-72
2022/05/29 05:17:49;;;;;;;4.40;2.30;;;8.60;99.90;;;;;;481372;247;27915;-72
2022/05/29 05:19:50;;;;;;;7.27;2.93;;;8.70;99.90;;;;;;481367;247;28001;-71
2022/05/29 05:21:51;;;;;;;2.63;2.43;;;8.90;99.90;;;;;;481365;247;27933;-71
2022/05/29 05:23:53;;;;;;;7.37;2.60;;;9.10;99.90;;;;;;481340;247;27561;-71
2022/05/29 05:25:54;;;;;;;3.50;2.30;;;9.10;99.90;;;;;;481307;247;27634;-71
2022/05/29 05:27:55;;;;;;;3.67;2.13;;;9.20;99.90;;;;;;481405;247;27902;-74
2022/05/29 05:29:56;;;;;;;5.10;2.63;;;9.10;99.90;;;;;;481354;247;28102;-71
2022/05/29 05:31:58;;;;;;;3.03;2.17;;;9.10;99.90;;;;;;481347;247;27924;-71
2022/05/29 05:33:59;;;;;;;2.00;1.90;;;9.10;99.90;;;;;;481356;247;27846;-71
2022/05/29 05:36:00;;;;;;;2.90;2.40;;;9.10;99.90;;;;;;481330;247;27924;-71
2022/05/29 05:38:01;;;;;;;7.10;2.80;;;9.10;99.90;;;;;;481363;246;28247;-72
2022/05/29 05:40:03;;;;;;;5.37;2.60;;;9.00;99.90;;;;;;481335;247;28473;-73
2022/05/29 05:42:04;;;;;;;4.10;2.50;;;8.90;99.90;;;;;;481352;247;28478;-73
2022/05/29 05:44:05;;;;;;;11.70;3.20;;;8.90;99.90;;;;;;481333;247;28426;-73
2022/05/29 05:46:06;;;;;;;5.13;2.83;;;8.90;99.90;;;;;;481342;247;28478;-71
2022/05/29 05:48:08;;;;;;;5.97;2.80;;;8.90;99.90;;;;;;481345;247;29641;-71
2022/05/29 05:50:09;;;;;;;4.47;2.17;;;9.20;99.90;;;;;;481340;247;27679;-71
2022/05/29 05:52:10;;;;;;;5.37;3.00;;;9.40;99.90;;;;;;481372;247;27732;-73
2022/05/29 05:54:12;;;;;;;5.40;2.50;;;9.20;99.90;;;;;;481343;247;27840;-71
2022/05/29 05:56:13;;;;;;;7.43;2.33;;;9.10;99.90;;;;;;481338;247;27682;-72
2022/05/29 05:58:14;;;;;;;2.50;2.00;;;9.20;99.90;;;;;;481328;247;27929;-71
2022/05/29 06:00:15;;;;;;;4.60;2.20;;;9.30;99.90;;;;;;481351;247;27886;-71
2022/05/29 06:02:16;;;;;;;4.17;2.20;;;9.30;99.90;;;;;;481353;247;27909;-73
2022/05/29 06:04:18;;;;;;;8.17;2.30;;;9.20;99.90;;;;;;481369;247;27896;-71
2022/05/29 06:06:19;;;;;;;5.10;2.50;;;9.20;99.90;;;;;;481358;247;27680;-72
2022/05/29 06:08:20;;;;;;;5.97;2.80;;;9.30;99.90;;;;;;481323;247;27918;-71
2022/05/29 06:10:21;;;;;;;4.50;2.07;;;9.30;99.90;;;;;;481347;247;27968;-71
2022/05/29 06:12:23;;;;;;;2.40;2.00;;;9.50;99.90;;;;;;481381;247;27939;-72
2022/05/29 06:14:24;;;;;;;4.57;2.20;;;9.60;99.90;;;;;;481343;247;27905;-71
2022/05/29 06:16:25;;;;;;;7.60;2.83;;;9.30;99.90;;;;;;481354;247;27804;-72
2022/05/29 06:18:26;;;;;;;4.80;2.37;;;9.30;99.90;;;;;;481347;247;29154;-72
2022/05/29 06:20:28;;;;;;;4.57;2.30;;;9.40;99.90;;;;;;481374;247;28385;-71
2022/05/29 06:22:29;;;;;;;3.87;2.10;;;9.50;99.90;;;;;;481378;247;28490;-74
2022/05/29 06:24:30;;;;;;;5.67;2.63;;;9.30;99.90;;;;;;481392;247;28438;-71
2022/05/29 06:26:31;;;;;;;4.80;2.37;;;9.40;99.90;;;;;;481365;247;28460;-71
2022/05/29 06:28:33;;;;;;;6.97;2.60;;;9.50;99.90;;;;;;481361;247;28130;-71
2022/05/29 06:30:34;;;;;;;5.77;2.50;;;9.40;99.90;;;;;;481351;247;27988;-71
2022/05/29 06:32:35;;;;;;;5.73;2.73;;;9.20;99.90;;;;;;481371;247;27697;-73
2022/05/29 06:34:36;;;;;;;5.03;2.20;;;9.20;99.90;;;;;;481358;247;27853;-71
2022/05/29 06:36:38;;;;;;;4.27;2.60;;;9.30;99.90;;;;;;481327;247;27700;-72
2022/05/29 06:38:39;;;;;;;4.73;2.40;;;9.30;99.90;;;;;;481353;247;27734;-71
2022/05/29 06:40:47;;;;;;;5.73;2.10;;;9.50;99.90;;;;;;481375;247;27887;-72
2022/05/29 06:42:44;;;;;;;4.20;2.27;;;9.60;99.90;;;;;;481082;247;28036;-70
2022/05/29 06:44:45;;;;;;;4.90;2.13;;;9.60;99.90;;;;;;481353;247;28018;-73
2022/05/29 06:46:46;;;;;;;4.23;2.33;;;9.50;99.90;;;;;;481359;247;27932;-71
2022/05/29 06:48:48;;;;;;;3.73;2.30;;;9.70;99.90;;;;;;481374;247;28037;-72
2022/05/29 06:50:49;;;;;;;8.70;2.50;;;9.80;99.90;;;;;;481355;247;27658;-71
2022/05/29 06:52:50;;;;;;;6.07;1.97;;;9.70;99.90;;;;;;481349;247;27860;-72
2022/05/29 06:54:51;;;;;;;3.50;2.10;;;10.00;99.90;;;;;;481396;247;28397;-73
2022/05/29 06:56:53;;;;;;;3.20;2.37;;;10.10;99.90;;;;;;481370;247;28434;-71
2022/05/29 06:58:54;;;;;;;5.57;2.10;;;10.30;99.90;;;;;;481356;247;28477;-72
2022/05/29 07:07:38;;;;;;;3.33;2.17;;;11.00;99.90;;;;;;481338;247;28103;-72
2022/05/29 07:09:40;;;;;;;5.40;2.47;;;10.70;99.90;;;;;;481349;247;28098;-72
2022/05/29 07:11:41;;;;;;;11.03;3.00;;;10.60;99.90;;;;;;481342;247;28274;-71
2022/05/29 07:13:42;;;;;;;3.73;2.10;;;10.30;99.90;;;;;;481371;247;28192;-72
2022/05/29 07:15:43;;;;;;;4.47;2.53;;;10.20;99.90;;;;;;481371;247;28252;-72
2022/05/29 07:17:45;;;;;;;8.03;2.60;;;10.10;99.90;;;;;;481358;247;27938;-71
2022/05/29 07:19:46;;;;;;;5.70;2.80;;;10.30;99.90;;;;;;481355;247;28828;-71
2022/05/29 07:21:47;;;;;;;8.03;2.80;;;10.60;99.90;;;;;;481341;247;28617;-71
2022/05/29 07:23:48;;;;;;;6.57;2.80;;;11.00;99.90;;;;;;481347;247;29525;-73
2022/05/29 07:25:51;;;;;;;4.50;2.33;;;10.70;99.90;;;;;;481335;247;28649;-71
2022/05/29 07:27:51;;;;;;;5.87;2.33;;;10.90;99.90;;;;;;481288;247;28386;-72
2022/05/29 07:29:53;;;;;;;5.53;2.57;;;11.10;99.90;;;;;;481349;247;28129;-71
2022/05/29 07:31:53;;;;;;;5.70;2.30;;;10.90;99.90;;;;;;481306;247;28765;-72
2022/05/29 07:33:55;;;;;;;5.03;2.50;;;11.00;99.90;;;;;;481326;247;28401;-73
2022/05/29 07:35:56;;;;;;;11.83;3.20;;;10.80;99.90;;;;;;481298;247;28237;-72
2022/05/29 07:37:57;;;;;;;2.90;2.03;;;10.60;99.90;;;;;;481333;247;28138;-72
2022/05/29 07:40:00;;;;;;;8.60;2.50;;;10.40;99.90;;;;;;481296;247;28363;-71
2022/05/29 07:44:19;;;;;;;3.60;2.27;;;10.60;99.90;;;;;;481344;247;28286;-72
2022/05/29 07:46:20;;;;;;;8.30;2.97;;;10.60;99.90;;;;;;481328;247;28105;-71
2022/05/29 07:48:23;;;;;;;3.93;2.47;;;10.60;99.90;;;;;;481338;247;28129;-71
2022/05/29 07:50:23;;;;;;;9.90;2.40;;;10.50;99.90;;;;;;481281;247;28132;-73
2022/05/29 07:52:24;;;;;;;3.90;2.03;;;10.60;99.90;;;;;;481323;247;28172;-71
2022/05/29 07:54:26;;;;;;;7.33;2.37;;;10.80;99.90;;;;;;481337;247;28204;-71
2022/05/29 07:56:26;;;;;;;8.60;2.70;;;10.90;99.90;;;;;;481302;247;28306;-71
2022/05/29 07:58:28;;;;;;;5.80;3.23;;;10.70;99.90;;;;;;481319;247;28758;-71
2022/05/29 08:00:29;;;;;;;5.27;2.40;;;10.40;99.90;;;;;;481313;247;29359;-71
2022/05/29 08:02:34;;;;;;;3.07;2.30;;;10.50;99.90;;;;;;481347;247;28787;-71
2022/05/29 08:04:31;;;;;;;5.50;2.30;;;10.70;99.90;;;;;;481076;247;28757;-71
2022/05/29 08:06:33;;;;;;;3.63;1.80;;;11.20;99.90;;;;;;481330;247;28066;-71
2022/05/29 08:08:34;;;;;;;5.17;2.30;;;11.40;99.90;;;;;;481328;247;28256;-72
2022/05/29 08:10:35;;;;;;;2.87;2.17;;;11.70;99.90;;;;;;481331;247;28319;-71
2022/05/29 08:12:36;;;;;;;5.40;2.40;;;11.50;99.90;;;;;;481382;247;28336;-71
2022/05/29 08:14:38;;;;;;;6.10;2.93;;;11.20;99.90;;;;;;481367;247;28371;-76
2022/05/29 08:16:39;;;;;;;4.53;2.60;;;11.20;99.90;;;;;;481342;247;27990;-71
2022/05/29 08:18:40;;;;;;;4.57;2.30;;;11.40;99.90;;;;;;481330;247;28394;-72
2022/05/29 08:20:42;;;;;;;7.23;2.80;;;11.50;99.90;;;;;;481315;247;28500;-70
2022/05/29 08:22:43;;;;;;;4.53;2.50;;;11.50;99.90;;;;;;481361;247;29000;-71
2022/05/29 08:31:42;;;;;;;3.40;2.00;;;11.40;99.90;;;;;;481327;247;28474;-71
2022/05/29 08:33:46;;;;;;;3.57;2.03;;;11.50;99.90;;;;;;481284;247;28832;-71
2022/05/29 08:35:45;;;;;;;9.37;2.70;;;11.60;99.90;;;;;;481186;247;28353;-71
2022/05/29 08:37:46;;;;;;;3.60;2.63;;;11.10;99.90;;;;;;481359;247;29190;-74
2022/05/29 08:39:47;;;;;;;3.30;2.10;;;11.50;99.90;;;;;;481336;247;28576;-71
2022/05/29 08:41:51;;;;;;;5.33;2.23;;;11.90;99.90;;;;;;481340;247;28629;-71
2022/05/29 08:43:50;;;;;;;2.13;1.93;;;12.10;99.90;;;;;;481198;247;28648;-71
2022/05/29 08:45:51;;;;;;;4.53;2.30;;;12.30;99.90;;;;;;481316;247;28250;-71
2022/05/29 08:47:52;;;;;;;3.27;2.47;;;12.20;99.90;;;;;;481365;247;28144;-74
2022/05/29 08:49:54;;;;;;;3.40;2.40;;;12.40;99.90;;;;;;481351;247;28330;-71
2022/05/29 08:51:55;;;;;;;5.10;2.40;;;11.90;99.90;;;;;;481359;247;28227;-72
2022/05/29 08:53:56;;;;;;;5.03;2.53;;;11.80;99.90;;;;;;481332;247;28134;-71
2022/05/29 08:55:57;;;;;;;5.00;2.20;;;11.60;99.90;;;;;;481313;247;28321;-71
2022/05/29 08:57:59;;;;;;;1.87;1.60;;;12.00;99.90;;;;;;481378;247;28248;-74
2022/05/29 09:00:00;;;;;;;6.17;2.20;;;12.20;99.90;;;;;;481369;247;28128;-71
2022/05/29 09:02:01;;;;;;;3.50;1.83;;;12.40;99.90;;;;;;481365;247;28148;-71
2022/05/29 09:04:02;;;;;;;3.00;2.00;;;12.40;99.90;;;;;;481362;247;28806;-72
2022/05/29 09:06:04;;;;;;;5.73;2.73;;;12.30;99.90;;;;;;481363;247;28735;-71
2022/05/29 09:08:05;;;;;;;2.10;1.90;;;12.50;99.90;;;;;;481350;247;30592;-71
2022/05/29 09:10:06;;;;;;;4.80;2.17;;;12.40;99.90;;;;;;481365;247;28211;-71
2022/05/29 09:12:07;;;;;;;7.67;2.80;;;12.20;99.90;;;;;;481351;247;28249;-73
2022/05/29 09:14:09;;;;;;;2.97;2.30;;;12.50;99.90;;;;;;481368;247;28270;-71
2022/05/29 09:16:10;;;;;;;3.97;2.23;;;12.50;99.90;;;;;;481368;247;28508;-72
2022/05/29 09:18:12;;;;;;;5.03;1.97;;;12.60;99.90;;;;;;481350;247;28140;-71
2022/05/29 09:20:12;;;;;;;4.53;2.30;;;13.00;99.90;;;;;;481355;247;28108;-71
2022/05/29 09:22:14;;;;;;;2.10;1.93;;;13.30;99.90;;;;;;481365;247;28520;-72
2022/05/29 09:24:15;;;;;;;8.23;2.07;;;12.60;99.90;;;;;;481351;246;28528;-72
2022/05/29 09:26:16;;;;;;;4.67;2.10;;;12.60;99.90;;;;;;481358;247;28819;-71
2022/05/29 09:28:17;;;;;;;2.92;1.70;;;12.90;99.90;;;;;;479421;247;48618;-71
2022/05/29 09:30:19;;;;;;;4.63;2.20;;;12.90;99.90;;;;;;481357;247;27892;-71
2022/05/29 09:32:20;;;;;;;2.90;1.80;;;12.60;99.90;;;;;;481374;247;28861;-73
2022/05/29 09:34:21;;;;;;;2.50;2.07;;;12.60;99.90;;;;;;481395;247;28430;-71
2022/05/29 09:36:22;;;;;;;4.00;2.00;;;12.80;99.90;;;;;;481406;247;28255;-72
2022/05/29 09:38:24;;;;;;;2.50;1.80;;;12.70;99.90;;;;;;481370;247;28342;-71
2022/05/29 09:40:25;;;;;;;4.63;1.90;;;12.30;99.90;;;;;;481358;247;28497;-71
2022/05/29 09:42:26;;;;;;;2.67;1.90;;;12.00;99.90;;;;;;481373;247;28174;-73
2022/05/29 09:44:28;;;;;;;5.63;2.20;;;12.00;99.90;;;;;;481363;247;28124;-71
2022/05/29 09:46:29;;;;;;;4.10;1.77;;;11.80;99.90;;;;;;481362;247;28188;-72
2022/05/29 09:50:50;;;;;;;3.10;1.83;;;12.30;99.90;;;;;;481356;247;28098;-71
2022/05/29 09:52:51;;;;;;;3.57;1.97;;;12.10;99.90;;;;;;481326;247;28154;-71
2022/05/29 09:54:52;;;;;;;4.13;1.63;;;12.80;99.90;;;;;;481365;247;28237;-74
2022/05/29 09:56:53;;;;;;;4.83;2.30;;;13.00;99.90;;;;;;481373;247;28553;-71
2022/05/29 09:58:55;;;;;;;3.17;1.80;;;13.50;99.90;;;;;;481357;247;29310;-72
2022/05/29 10:00:56;;;;;;;2.93;1.90;;;13.60;99.90;;;;;;481355;247;28913;-71
2022/05/29 10:02:59;;;;;;;2.50;1.67;;;13.70;99.90;;;;;;481357;247;29394;-72
2022/05/29 10:04:59;;;;;;;2.20;1.60;;;13.60;99.90;;;;;;481293;247;28926;-72
2022/05/29 10:07:00;;;;;;;1.83;1.60;;;13.80;99.90;;;;;;481363;247;28757;-71
2022/05/29 10:09:01;;;;;;;3.47;1.50;;;13.40;99.90;;;;;;481351;247;28781;-72
2022/05/29 10:11:02;;;;;;;2.50;1.80;;;13.00;99.90;;;;;;481308;247;28841;-71
2022/05/29 10:13:04;;;;;;;5.60;2.27;;;12.60;99.90;;;;;;481346;247;28808;-71
2022/05/29 10:15:05;;;;;;;3.87;1.80;;;12.20;99.90;;;;;;481396;247;28169;-72
2022/05/29 10:17:06;;;;;;;7.20;2.17;;;12.20;99.90;;;;;;481362;247;28859;-71
2022/05/29 10:19:07;;;;;;;2.50;1.70;;;12.10;99.90;;;;;;481342;247;28374;-71
2022/05/29 10:21:09;;;;;;;2.70;1.70;;;12.10;99.90;;;;;;481343;247;28181;-71
2022/05/29 10:23:10;;;;;;;1.90;1.60;;;12.20;99.90;;;;;;481327;247;28948;-72
2022/05/29 10:25:11;;;;;;;2.30;1.70;;;12.10;99.90;;;;;;481363;247;28636;-74
2022/05/29 10:27:12;;;;;;;3.40;1.80;;;12.40;99.90;;;;;;481372;247;28696;-71
2022/05/29 10:29:14;;;;;;;3.23;1.70;;;12.70;99.90;;;;;;481364;247;28202;-71
2022/05/29 10:31:15;;;;;;;1.67;1.57;;;12.60;99.90;;;;;;481330;247;28359;-71
2022/05/29 10:33:16;;;;;;;1.50;1.40;;;12.90;99.90;;;;;;481328;247;28277;-71
2022/05/29 10:35:17;;;;;;;2.60;1.37;;;13.10;99.90;;;;;;481354;247;28278;-74
2022/05/29 10:37:19;;;;;;;1.90;1.70;;;13.20;99.90;;;;;;481346;247;28320;-71
2022/05/29 10:39:20;;;;;;;4.30;1.63;;;13.40;99.90;;;;;;481346;247;28519;-72
2022/05/29 10:41:21;;;;;;;6.10;1.70;;;13.50;99.90;;;;;;481348;247;28765;-71
2022/05/29 10:43:23;;;;;;;3.50;1.70;;;13.30;99.90;;;;;;481348;247;28447;-71
2022/05/29 10:45:24;;;;;;;2.00;1.50;;;12.80;99.90;;;;;;481376;247;28473;-73
2022/05/29 10:47:25;;;;;;;2.67;1.53;;;12.50;99.90;;;;;;481346;247;29254;-71
2022/05/29 10:49:26;;;;;;;3.67;1.60;;;12.30;99.90;;;;;;481328;247;28889;-72
2022/05/29 10:51:27;;;;;;;1.87;1.60;;;12.70;99.90;;;;;;481350;247;28588;-71
2022/05/29 10:53:29;;;;;;;2.73;1.80;;;12.70;99.90;;;;;;481263;247;28757;-72
2022/05/29 10:55:31;;;;;;;3.30;1.90;;;;;;;;;;481330;247;28354;-71
2022/05/29 10:57:32;;;;;;;2.20;1.40;;;12.80;99.90;;;;;;481307;247;26439;-71
2022/05/29 10:59:33;;;;;;;1.77;1.47;;;13.00;99.90;;;;;;481302;246;28128;-71
2022/05/29 11:03:55;;;;;;;1.50;1.40;;;13.80;99.90;;;;;;481344;247;28859;-74